createdAt,value
2023-03-02T00:01:08.447Z,64.63
2023-03-02T00:03:42.445Z,65.28
2023-03-02T00:06:17.205Z,65.44
2023-03-02T00:08:50.081Z,65.06
2023-03-02T00:11:22.976Z,65.25
2023-03-02T00:13:55.454Z,65.43
2023-03-02T00:16:28.246Z,64.94
2023-03-02T00:19:01.153Z,65.42
2023-03-02T00:21:35.500Z,65.90
2023-03-02T00:24:08.894Z,65.43
2023-03-02T00:26:41.636Z,65.39
2023-03-02T00:29:14.347Z,65.75
2023-03-02T00:31:47.233Z,65.53
2023-03-02T00:34:21.194Z,65.95
2023-03-02T00:36:55.407Z,65.43
2023-03-02T00:39:28.164Z,65.43
2023-03-02T00:42:00.997Z,65.76
2023-03-02T00:44:34.193Z,65.59
2023-03-02T00:47:07.298Z,65.85
2023-03-02T00:49:39.830Z,66.03
2023-03-02T00:52:14.059Z,65.88
2023-03-02T00:54:46.857Z,65.93
2023-03-02T00:57:20.392Z,65.76
2023-03-02T00:59:53.220Z,65.78
2023-03-02T01:02:30.835Z,66.47
2023-03-02T01:05:03.752Z,66.21
2023-03-02T01:07:38.027Z,66.52
2023-03-02T01:10:12.266Z,66.09
2023-03-02T01:12:45.143Z,66.07
2023-03-02T01:15:17.871Z,66.35
2023-03-02T01:17:50.674Z,65.79
2023-03-02T01:20:23.274Z,66.33
2023-03-02T01:22:57.578Z,66.30
2023-03-02T01:25:30.304Z,66.05
2023-03-02T01:28:03.052Z,65.70
2023-03-02T01:30:35.921Z,65.92
2023-03-02T01:33:09.300Z,65.98
2023-03-02T01:35:42.037Z,66.31
2023-03-02T01:38:16.505Z,66.54
2023-03-02T01:40:49.331Z,66.68
2023-03-02T01:43:22.236Z,66.65
2023-03-02T01:45:57.152Z,66.52
2023-03-02T01:48:55.564Z,66.51
2023-03-02T01:51:48.857Z,66.46
2023-03-02T01:54:24.428Z,66.72
2023-03-02T01:57:05.250Z,66.90
2023-03-02T01:59:42.521Z,66.86
2023-03-02T02:02:15.287Z,66.32
2023-03-02T02:04:50.236Z,66.51
2023-03-02T02:07:22.971Z,66.93
2023-03-02T02:09:57.604Z,66.68
2023-03-02T02:12:31.729Z,66.48
2023-03-02T02:15:05.860Z,66.73
2023-03-02T02:17:38.858Z,66.92
2023-03-02T02:20:24.124Z,66.79
2023-03-02T02:23:07.067Z,67.12
2023-03-02T02:25:49.167Z,67.03
2023-03-02T02:28:29.018Z,67.06
2023-03-02T02:31:08.189Z,66.63
2023-03-02T02:33:43.098Z,66.65
2023-03-02T02:36:20.092Z,66.93
2023-03-02T02:38:56.687Z,67.00
2023-03-02T02:41:33.941Z,67.17
2023-03-02T02:44:11.003Z,66.70
2023-03-02T02:46:44.783Z,66.84
2023-03-02T02:49:31.190Z,67.07
2023-03-02T02:52:06.370Z,67.11
2023-03-02T02:54:39.934Z,66.86
2023-03-02T02:57:17.783Z,67.11
2023-03-02T02:59:54.457Z,67.00
2023-03-02T03:02:29.986Z,67.11
2023-03-02T03:05:03.829Z,67.29
2023-03-02T03:07:39.837Z,67.07
2023-03-02T03:10:19.256Z,67.06
2023-03-02T03:12:52.874Z,67.29
2023-03-02T03:15:28.525Z,66.87
2023-03-02T03:18:01.314Z,66.71
2023-03-02T03:20:34.383Z,66.63
2023-03-02T03:23:07.025Z,66.92
2023-03-02T03:25:41.776Z,66.95
2023-03-02T03:28:15.643Z,67.24
2023-03-02T03:30:50.058Z,66.92
2023-03-02T03:33:23.112Z,67.07
2023-03-02T03:35:55.922Z,66.81
2023-03-02T03:38:29.268Z,66.73
2023-03-02T03:41:02.187Z,66.81
2023-03-02T03:43:35.560Z,67.17
2023-03-02T03:46:11.022Z,67.17
2023-03-02T03:48:43.854Z,66.87
2023-03-02T03:51:17.752Z,66.98
2023-03-02T03:53:59.850Z,67.16
2023-03-02T03:56:39.303Z,66.77
2023-03-02T03:59:15.068Z,66.82
2023-03-02T04:01:56.852Z,67.57
2023-03-02T04:04:34.329Z,67.40
2023-03-02T04:07:11.276Z,67.03
2023-03-02T04:09:44.758Z,67.02
2023-03-02T04:12:19.409Z,67.33
2023-03-02T04:14:56.611Z,67.88
2023-03-02T04:17:31.165Z,67.20
2023-03-02T04:20:07.684Z,67.15
2023-03-02T04:22:40.931Z,66.69
2023-03-02T04:25:15.273Z,66.95
2023-03-02T04:27:50.117Z,67.60
2023-03-02T04:30:26.044Z,66.86
2023-03-02T04:33:00.828Z,67.62
2023-03-02T04:35:35.141Z,67.15
2023-03-02T04:38:09.175Z,67.59
2023-03-02T04:40:42.234Z,67.15
2023-03-02T04:43:15.063Z,68.36
2023-03-02T04:45:48.144Z,67.74
2023-03-02T04:48:22.939Z,67.65
2023-03-02T04:50:55.738Z,67.18
2023-03-02T04:53:28.418Z,67.65
2023-03-02T04:56:01.286Z,68.05
2023-03-02T04:58:33.921Z,67.50
2023-03-02T05:01:07.380Z,67.72
2023-03-02T05:03:41.543Z,67.80
2023-03-02T05:06:14.640Z,67.34
2023-03-02T05:08:47.269Z,67.98
2023-03-02T05:11:26.085Z,67.28
2023-03-02T05:14:00.943Z,67.38
2023-03-02T05:16:37.130Z,67.47
2023-03-02T05:19:13.417Z,67.40
2023-03-02T05:21:46.583Z,67.43
2023-03-02T05:24:19.367Z,67.56
2023-03-02T05:26:52.035Z,67.96
2023-03-02T05:29:24.714Z,67.28
2023-03-02T05:31:57.591Z,67.56
2023-03-02T05:34:31.705Z,67.94
2023-03-02T05:37:04.444Z,68.40
2023-03-02T05:39:37.233Z,67.90
2023-03-02T05:42:10.449Z,67.78
2023-03-02T05:44:43.186Z,67.83
2023-03-02T05:47:15.918Z,67.75
2023-03-02T05:49:49.968Z,67.68
2023-03-02T05:52:22.716Z,68.04
2023-03-02T05:54:56.277Z,69.87
2023-03-02T05:57:30.357Z,68.59
2023-03-02T06:00:04.782Z,68.73
2023-03-02T06:02:45.252Z,68.66
2023-03-02T06:05:21.741Z,68.21
2023-03-02T06:07:54.805Z,67.98
2023-03-02T06:10:27.949Z,68.31
2023-03-02T06:13:00.944Z,68.11
2023-03-02T06:15:33.438Z,68.24
2023-03-02T06:18:06.196Z,68.65
2023-03-02T06:20:40.901Z,68.20
2023-03-02T06:23:14.089Z,68.37
2023-03-02T06:25:48.794Z,68.52
2023-03-02T06:28:22.012Z,68.50
2023-03-02T06:30:54.781Z,68.47
2023-03-02T06:33:27.571Z,68.73
2023-03-02T06:36:01.865Z,68.33
2023-03-02T06:38:35.000Z,68.81
2023-03-02T06:41:07.749Z,68.25
2023-03-02T06:43:40.780Z,67.87
2023-03-02T06:46:14.317Z,67.45
2023-03-02T06:48:47.077Z,68.46
2023-03-02T06:51:21.121Z,68.23
2023-03-02T06:53:53.893Z,68.23
2023-03-02T06:56:26.633Z,68.37
2023-03-02T06:58:59.597Z,67.97
2023-03-02T07:01:35.682Z,67.52
2023-03-02T07:04:08.584Z,68.21
2023-03-02T07:06:42.697Z,67.96
2023-03-02T07:09:15.902Z,68.08
2023-03-02T07:11:48.607Z,68.30
2023-03-02T07:14:21.423Z,67.86
2023-03-02T07:16:56.636Z,67.87
2023-03-02T07:19:29.383Z,68.18
2023-03-02T07:22:03.671Z,67.81
2023-03-02T07:24:36.343Z,67.91
2023-03-02T07:27:09.099Z,67.74
2023-03-02T07:29:41.902Z,68.32
2023-03-02T07:32:14.732Z,68.01
2023-03-02T07:34:47.310Z,68.01
2023-03-02T07:37:21.368Z,67.95
2023-03-02T07:39:55.260Z,68.35
2023-03-02T07:42:27.950Z,68.18
2023-03-02T07:45:04.420Z,68.03
2023-03-02T07:47:37.072Z,68.66
2023-03-02T07:50:11.279Z,68.33
2023-03-02T07:52:45.458Z,68.33
2023-03-02T07:55:18.346Z,68.12
2023-03-02T07:57:50.965Z,68.36
2023-03-02T08:00:24.225Z,68.16
2023-03-02T08:02:57.104Z,68.31
2023-03-02T08:05:29.865Z,68.36
2023-03-02T08:08:03.890Z,68.62
2023-03-02T08:10:37.368Z,68.19
2023-03-02T08:13:10.244Z,67.93
2023-03-02T08:15:43.037Z,67.96
2023-03-02T08:18:15.547Z,67.45
2023-03-02T08:20:48.304Z,67.35
2023-03-02T08:23:22.621Z,67.63
2023-03-02T08:25:57.290Z,67.52
2023-03-02T08:28:30.066Z,67.98
2023-03-02T08:31:04.507Z,66.66
2023-03-02T08:33:37.286Z,66.16
2023-03-02T08:36:13.905Z,66.84
2023-03-02T08:38:48.672Z,66.50
2023-03-02T08:41:23.479Z,66.41
2023-03-02T08:43:57.160Z,66.33
2023-03-02T08:46:30.605Z,66.96
2023-03-02T08:49:03.502Z,66.86
2023-03-02T08:51:36.249Z,66.88
2023-03-02T08:54:11.058Z,67.01
2023-03-02T08:56:44.535Z,66.55
2023-03-02T08:59:18.363Z,66.47
2023-03-02T09:01:51.053Z,66.42
2023-03-02T09:04:23.838Z,66.25
2023-03-02T09:06:56.738Z,66.06
2023-03-02T09:09:30.817Z,66.22
2023-03-02T09:12:03.549Z,66.06
2023-03-02T09:14:36.256Z,65.63
2023-03-02T09:17:09.164Z,65.41
2023-03-02T09:19:44.509Z,65.55
2023-03-02T09:22:17.624Z,65.29
2023-03-02T09:24:51.800Z,65.53
2023-03-02T09:27:24.533Z,65.71
2023-03-02T09:29:57.579Z,66.04
2023-03-02T09:32:30.669Z,65.75
2023-03-02T09:35:03.645Z,67.13
2023-03-02T09:37:38.964Z,65.94
2023-03-02T09:40:19.988Z,67.59
2023-03-02T09:43:12.657Z,67.52
2023-03-02T09:45:58.509Z,67.20
2023-03-02T09:48:39.677Z,67.09
2023-03-02T09:51:25.091Z,67.21
2023-03-02T09:54:04.517Z,66.95
2023-03-02T09:56:43.875Z,66.31
2023-03-02T09:59:24.181Z,66.18
2023-03-02T10:02:02.182Z,66.82
2023-03-02T10:04:42.204Z,67.69
2023-03-02T10:07:17.314Z,66.06
2023-03-02T10:09:50.400Z,66.78
2023-03-02T10:12:37.785Z,65.57
2023-03-02T10:15:15.734Z,65.59
2023-03-02T10:17:59.583Z,66.77
2023-03-02T10:20:37.939Z,65.22
2023-03-02T10:23:28.831Z,65.50
2023-03-02T10:26:10.950Z,66.00
2023-03-02T10:28:50.344Z,66.63
2023-03-02T10:31:28.486Z,65.14
2023-03-02T10:34:01.923Z,65.74
2023-03-02T10:36:39.289Z,64.42
2023-03-02T10:39:15.156Z,65.19
2023-03-02T10:41:53.088Z,64.46
2023-03-02T10:44:32.579Z,63.05
2023-03-02T10:47:07.480Z,63.58
2023-03-02T10:49:43.557Z,65.15
2023-03-02T10:52:17.786Z,63.80
2023-03-02T10:54:52.668Z,65.45
2023-03-02T10:57:31.205Z,64.79
2023-03-02T11:00:17.419Z,64.44
2023-03-02T11:02:51.980Z,64.37
2023-03-02T11:05:29.735Z,63.42
2023-03-02T11:08:04.838Z,64.76
2023-03-02T11:10:39.445Z,63.78
2023-03-02T11:13:19.384Z,64.36
2023-03-02T11:15:55.910Z,64.62
2023-03-02T11:18:34.579Z,65.11
2023-03-02T11:21:11.739Z,64.51
2023-03-02T11:23:57.221Z,63.58
2023-03-02T11:26:35.508Z,61.51
2023-03-02T11:29:15.652Z,62.34
2023-03-02T11:31:53.467Z,60.49
2023-03-02T11:34:33.877Z,65.10
2023-03-02T11:37:16.505Z,60.04
2023-03-02T11:40:05.136Z,61.34
2023-03-02T11:42:41.407Z,64.74
2023-03-02T11:45:21.929Z,65.00
2023-03-02T11:48:03.493Z,63.30
2023-03-02T11:50:46.900Z,62.80
2023-03-02T11:53:22.060Z,60.22
2023-03-02T11:55:54.897Z,66.33
2023-03-02T11:58:30.694Z,62.99
2023-03-02T12:01:04.742Z,61.95
2023-03-02T12:03:41.890Z,66.80
2023-03-02T12:06:30.578Z,62.29
2023-03-02T12:09:26.528Z,62.04
2023-03-02T12:12:01.799Z,59.88
2023-03-02T12:14:39.073Z,64.00
2023-03-02T12:17:33.084Z,59.27
2023-03-02T12:20:26.912Z,58.52
2023-03-02T12:23:22.378Z,60.15
2023-03-02T12:26:08.752Z,55.34
2023-03-02T12:28:41.949Z,56.99
2023-03-02T12:31:14.732Z,60.12
2023-03-02T12:33:49.140Z,57.80
2023-03-02T12:36:30.505Z,57.37
2023-03-02T12:39:21.957Z,57.43
2023-03-02T12:42:10.403Z,61.92
2023-03-02T12:44:53.077Z,56.12
2023-03-02T12:47:30.029Z,59.49
2023-03-02T12:50:06.528Z,58.95
2023-03-02T12:52:40.736Z,59.21
2023-03-02T12:55:19.108Z,59.82
2023-03-02T12:57:54.607Z,60.54
2023-03-02T13:00:30.208Z,64.70
2023-03-02T13:03:03.377Z,63.58
2023-03-02T13:05:37.668Z,59.59
2023-03-02T13:08:18.531Z,61.75
2023-03-02T13:10:53.219Z,63.99
2023-03-02T13:13:28.261Z,60.47
2023-03-02T13:16:02.921Z,60.06
2023-03-02T13:18:39.639Z,61.97
2023-03-02T13:21:15.853Z,64.49
2023-03-02T13:23:51.759Z,65.97
2023-03-02T13:26:30.058Z,66.57
2023-03-02T13:29:05.407Z,62.70
2023-03-02T13:31:38.474Z,67.01
2023-03-02T13:34:21.829Z,63.61
2023-03-02T13:36:55.624Z,67.85
2023-03-02T13:39:31.541Z,66.92
2023-03-02T13:42:04.840Z,65.91
2023-03-02T13:44:37.536Z,63.62
2023-03-02T13:47:23.102Z,67.56
2023-03-02T13:49:55.852Z,65.20
2023-03-02T13:52:31.317Z,66.50
2023-03-02T13:55:05.960Z,66.71
2023-03-02T13:57:38.751Z,63.69
2023-03-02T14:00:14.904Z,67.04
2023-03-02T14:02:48.715Z,66.10
2023-03-02T14:05:23.832Z,66.29
2023-03-02T14:07:56.686Z,60.96
2023-03-02T14:10:30.838Z,65.66
2023-03-02T14:13:07.265Z,60.73
2023-03-02T14:15:43.790Z,65.06
2023-03-02T14:18:29.469Z,63.98
2023-03-02T14:21:02.407Z,62.99
2023-03-02T14:23:35.020Z,64.28
2023-03-02T14:26:21.927Z,65.10
2023-03-02T14:29:04.924Z,64.72
2023-03-02T14:31:38.429Z,65.31
2023-03-02T14:34:13.963Z,65.15
2023-03-02T14:36:50.612Z,66.13
2023-03-02T14:39:28.339Z,65.72
2023-03-02T14:42:02.450Z,65.42
2023-03-02T14:44:35.422Z,65.77
2023-03-02T14:47:10.019Z,65.56
2023-03-02T14:49:42.952Z,65.66
2023-03-02T14:52:17.189Z,65.03
2023-03-02T14:54:54.035Z,65.66
2023-03-02T14:57:30.306Z,64.89
2023-03-02T15:00:03.118Z,65.14
2023-03-02T15:02:36.114Z,64.71
2023-03-02T15:05:09.266Z,65.14
2023-03-02T15:07:41.991Z,65.00
2023-03-02T15:10:17.275Z,65.45
2023-03-02T15:12:52.031Z,64.89
2023-03-02T15:15:26.248Z,64.89
2023-03-02T15:17:59.102Z,65.36
2023-03-02T15:20:32.157Z,66.80
2023-03-02T15:23:04.833Z,64.79
2023-03-02T15:25:37.675Z,65.21
2023-03-02T15:28:11.753Z,65.86
2023-03-02T15:30:44.480Z,64.82
2023-03-02T15:33:17.496Z,65.28
2023-03-02T15:35:54.945Z,64.72
2023-03-02T15:38:28.221Z,65.51
2023-03-02T15:41:05.114Z,65.66
2023-03-02T15:43:39.474Z,65.65
2023-03-02T15:46:12.412Z,65.43
2023-03-02T15:48:44.974Z,65.72
2023-03-02T15:51:17.790Z,66.17
2023-03-02T15:53:50.488Z,65.49
2023-03-02T15:56:26.508Z,65.93
2023-03-02T15:59:02.501Z,65.45
2023-03-02T16:01:35.309Z,65.14
2023-03-02T16:04:08.187Z,64.67
2023-03-02T16:06:40.989Z,65.62
2023-03-02T16:09:13.749Z,65.39
2023-03-02T16:11:46.462Z,64.96
2023-03-02T16:14:20.517Z,65.86
2023-03-02T16:16:53.505Z,67.15
2023-03-02T16:19:26.688Z,65.91
2023-03-02T16:21:59.434Z,65.91
2023-03-02T16:24:32.402Z,65.43
2023-03-02T16:27:05.146Z,67.46
2023-03-02T16:29:39.254Z,66.47
2023-03-02T16:32:12.229Z,65.14
2023-03-02T16:34:44.896Z,64.58
2023-03-02T16:37:18.174Z,65.38
2023-03-02T16:39:50.984Z,65.35
2023-03-02T16:42:23.786Z,65.93
2023-03-02T16:44:58.775Z,65.38
2023-03-02T16:47:31.726Z,65.06
2023-03-02T16:50:04.725Z,65.07
2023-03-02T16:52:37.737Z,64.38
2023-03-02T16:55:12.929Z,65.50
2023-03-02T16:57:45.952Z,65.22
2023-03-02T17:00:22.081Z,66.39
2023-03-02T17:02:55.237Z,64.78
2023-03-02T17:05:27.897Z,65.26
2023-03-02T17:08:02.872Z,64.80
2023-03-02T17:10:35.598Z,65.70
2023-03-02T17:13:09.446Z,64.48
2023-03-02T17:15:44.021Z,65.10
2023-03-02T17:18:17.241Z,65.91
2023-03-02T17:20:52.206Z,65.64
2023-03-02T17:23:27.069Z,65.96
2023-03-02T17:25:59.896Z,65.47
2023-03-02T17:28:32.694Z,67.40
2023-03-02T17:31:07.158Z,66.52
2023-03-02T17:33:40.017Z,65.27
2023-03-02T17:36:12.856Z,65.08
2023-03-02T17:38:48.398Z,66.68
2023-03-02T17:41:21.249Z,65.38
2023-03-02T17:43:53.989Z,66.22
2023-03-02T17:46:29.890Z,65.98
2023-03-02T17:49:03.109Z,65.63
2023-03-02T17:51:36.131Z,66.90
2023-03-02T17:54:08.936Z,65.17
2023-03-02T17:56:41.952Z,65.57
2023-03-02T17:59:14.736Z,67.16
2023-03-02T18:01:49.368Z,66.14
2023-03-02T18:04:22.201Z,65.71
2023-03-02T18:06:55.517Z,66.55
2023-03-02T18:09:28.214Z,65.57
2023-03-02T18:12:02.491Z,66.08
2023-03-02T18:14:36.592Z,66.95
2023-03-02T18:17:10.819Z,65.93
2023-03-02T18:19:43.515Z,65.64
2023-03-02T18:22:16.298Z,66.34
2023-03-02T18:24:50.513Z,66.02
2023-03-02T18:27:23.284Z,65.88
2023-03-02T18:29:56.110Z,66.01
2023-03-02T18:32:30.181Z,66.07
2023-03-02T18:35:02.897Z,68.96
2023-03-02T18:37:35.902Z,68.09
2023-03-02T18:40:11.177Z,66.15
2023-03-02T18:42:43.889Z,66.31
2023-03-02T18:45:23.405Z,67.62
2023-03-02T18:47:58.990Z,69.48
2023-03-02T18:50:31.853Z,68.01
2023-03-02T18:53:04.535Z,67.78
2023-03-02T18:55:38.459Z,68.12
2023-03-02T18:58:19.040Z,70.86
2023-03-02T19:00:54.262Z,71.39
2023-03-02T19:03:28.812Z,70.43
2023-03-02T19:06:02.338Z,69.35
2023-03-02T19:08:35.746Z,69.58
2023-03-02T19:11:09.020Z,68.77
2023-03-02T19:13:41.986Z,70.23
2023-03-02T19:16:15.099Z,70.02
2023-03-02T19:18:50.015Z,71.79
2023-03-02T19:21:22.806Z,68.87
2023-03-02T19:23:55.693Z,69.51
2023-03-02T19:26:28.462Z,71.64
2023-03-02T19:29:01.344Z,71.64
2023-03-02T19:31:34.158Z,71.13
2023-03-02T19:34:08.142Z,69.66
2023-03-02T19:36:40.944Z,70.80
2023-03-02T19:39:13.949Z,71.30
2023-03-02T19:41:46.942Z,71.89
2023-03-02T19:44:19.673Z,72.12
2023-03-02T19:46:53.060Z,70.33
2023-03-02T19:49:27.300Z,71.00
2023-03-02T19:52:00.879Z,70.59
2023-03-02T19:54:33.578Z,71.91
2023-03-02T19:57:07.831Z,71.63
2023-03-02T19:59:41.071Z,70.23
2023-03-02T20:02:15.194Z,69.20
2023-03-02T20:04:50.900Z,70.15
2023-03-02T20:07:23.940Z,70.35
2023-03-02T20:09:56.636Z,70.69
2023-03-02T20:12:29.570Z,70.26
2023-03-02T20:15:02.931Z,70.59
2023-03-02T20:17:35.718Z,70.07
2023-03-02T20:20:12.040Z,69.44
2023-03-02T20:22:45.443Z,68.61
2023-03-02T20:25:19.797Z,69.55
2023-03-02T20:27:53.147Z,66.83
2023-03-02T20:30:29.957Z,67.79
2023-03-02T20:33:03.203Z,67.13
2023-03-02T20:35:41.125Z,67.22
2023-03-02T20:38:18.461Z,68.27
2023-03-02T20:40:51.509Z,66.40
2023-03-02T20:43:24.436Z,69.68
2023-03-02T20:45:57.398Z,67.14
2023-03-02T20:48:30.204Z,68.52
2023-03-02T20:51:04.763Z,67.06
2023-03-02T20:53:37.619Z,66.76
2023-03-02T20:56:12.791Z,66.53
2023-03-02T20:58:47.096Z,67.11
2023-03-02T21:01:23.664Z,66.94
2023-03-02T21:03:57.060Z,67.19
2023-03-02T21:06:33.421Z,66.97
2023-03-02T21:09:09.487Z,67.42
2023-03-02T21:11:42.426Z,66.70
2023-03-02T21:14:15.711Z,66.77
2023-03-02T21:16:48.517Z,66.50
2023-03-02T21:19:21.604Z,66.59
2023-03-02T21:21:56.640Z,67.29
2023-03-02T21:24:29.855Z,67.14
2023-03-02T21:27:02.849Z,67.43
2023-03-02T21:29:35.397Z,67.01
2023-03-02T21:32:08.227Z,67.30
2023-03-02T21:34:40.981Z,67.44
2023-03-02T21:37:15.061Z,67.17
2023-03-02T21:39:48.477Z,67.56
2023-03-02T21:42:21.657Z,67.13
2023-03-02T21:44:55.487Z,67.16
2023-03-02T21:47:28.298Z,66.94
2023-03-02T21:50:01.008Z,67.29
2023-03-02T21:52:35.419Z,67.15
2023-03-02T21:55:09.524Z,67.19
2023-03-02T21:57:42.877Z,66.94
2023-03-02T22:00:22.168Z,66.88
2023-03-02T22:02:55.789Z,67.28
2023-03-02T22:05:29.185Z,67.34
2023-03-02T22:08:03.210Z,67.15
2023-03-02T22:10:40.752Z,67.14
2023-03-02T22:13:20.482Z,67.46
2023-03-02T22:15:59.102Z,67.72
2023-03-02T22:18:32.787Z,67.02
2023-03-02T22:21:24.076Z,67.58
2023-03-02T22:24:14.952Z,67.55
2023-03-02T22:26:50.800Z,66.93
2023-03-02T22:29:26.290Z,67.31
2023-03-02T22:32:13.862Z,67.38
2023-03-02T22:34:48.085Z,67.58
2023-03-02T22:37:23.333Z,67.17
2023-03-02T22:39:59.119Z,67.33
2023-03-02T22:42:32.176Z,67.37
2023-03-02T22:45:14.968Z,67.45
2023-03-02T22:47:51.692Z,66.94
2023-03-02T22:50:26.225Z,67.15
2023-03-02T22:53:01.408Z,67.33
2023-03-02T22:55:40.878Z,67.10
2023-03-02T22:58:32.608Z,67.47
2023-03-02T23:01:19.272Z,67.41
2023-03-02T23:03:54.504Z,67.36
2023-03-02T23:06:32.332Z,67.29
2023-03-02T23:09:07.715Z,67.48
2023-03-02T23:11:43.029Z,67.48
2023-03-02T23:14:23.166Z,67.02
2023-03-02T23:16:59.871Z,66.92
2023-03-02T23:19:33.378Z,67.32
2023-03-02T23:22:06.140Z,67.05
2023-03-02T23:24:38.835Z,67.02
2023-03-02T23:27:13.303Z,67.46
2023-03-02T23:29:46.146Z,67.46
2023-03-02T23:32:19.796Z,67.41
2023-03-02T23:34:52.901Z,67.46
2023-03-02T23:37:25.727Z,67.87
2023-03-02T23:39:58.667Z,67.61
2023-03-02T23:42:32.787Z,68.11
2023-03-02T23:45:06.475Z,67.50
2023-03-02T23:47:39.192Z,67.29
2023-03-02T23:50:13.047Z,67.25
2023-03-02T23:52:45.753Z,67.37
2023-03-02T23:55:18.999Z,67.51
2023-03-02T23:57:53.273Z,67.30
